Unity N — V7WI2 — position and weather

sailwx.info

Track history (hours):
 
Tides and Currents Weather Stations Pressure Air Temp Water Temp Dewpoint Dewpoint Depression Visibility Wind Speed Wind Dir Waves Ship Positions

Unity N

Last reported at 2017-May-24 17:43 UTC. Time now 2017-Jul-24 00:40 UTC.
Position N 37°34' W 124°51'.
Warning: this ship's position is months out of date.

Length 229 m; draft 11.9 m.

Type: Cargo ship. MMSI: 538006451.

Date/timePositionNaut miles runAvg speedWind from/ knotsBaromVisibWave heightAir tempDewpointWater temp
2017-May-24 17:43N 37°34' W 124°51'10 9.8
2017-May-24 16:41N 37°34' W 124°38'210.3
2017-May-24 16:30N 37°34' W 124°35'510.2
2017-May-24 16:01N 37°34' W 124°29'610.2
2017-May-24 15:25N 37°34' W 124°21'410.0
2017-May-24 15:01N 37°34' W 124°16'5 9.5
2017-May-24 14:30N 37°34' W 124°10'1010.0
2017-May-24 13:31N 37°34' W 123°58'510.3
2017-May-24 13:01N 37°34' W 123°51'510.6
2017-May-24 12:31N 37°34' W 123°45'510.9
2017-May-24 12:01N 37°34' W 123°38'611.1
2017-May-24 11:30N 37°34' W 123°31'610.9
2017-May-24 11:00N 37°34' W 123°24'510.5
2017-May-24 10:30N 37°34' W 123°17'510.4
2017-May-24 10:01N 37°34' W 123°11'510.2
2017-May-24 09:30N 37°34' W 123°04'510.8
2017-May-24 09:00N 37°37' W 122°58'511.0
2017-May-24 08:30N 37°40' W 122°53'510.9
2017-May-24 08:01N 37°43' W 122°47'510.5
2017-May-24 07:31N 37°45' W 122°41'510.5
2017-May-24 07:01N 37°47' W 122°35'611.7
2017-May-24 06:30N 37°50' W 122°28'4 7.4
2017-May-24 06:01N 37°52' W 122°25'2 4.7
2017-May-24 05:30N 37°55' W 122°24'2 4.4
2017-May-24 05:00N 37°55' W 122°22'1 1.1
2017-May-24 04:30N 37°55' W 122°22'0 0.0
2017-May-24 03:58N 37°55' W 122°22'0 0.0
2017-May-24 03:28N 37°55' W 122°22'0 0.0
2017-May-24 03:00N 37°55' W 122°22'0 0.0
2017-May-24 02:28N 37°55' W 122°22'0 0.0
2017-May-24 01:57N 37°55' W 122°22'0 0.0
2017-May-24 01:31N 37°55' W 122°22'0 0.0
2017-May-24 00:57N 37°55' W 122°22'0 0.0
2017-May-24 00:27N 37°55' W 122°22'0 0.0
2017-May-24 00:00N 37°55' W 122°22'0 0.0
2017-May-23 23:27N 37°55' W 122°22'0 0.0
2017-May-23 23:00N 37°55' W 122°22'0 0.0
2017-May-23 22:27N 37°55' W 122°22'0 0.0
2017-May-23 21:57N 37°55' W 122°22'0 0.0
2017-May-23 21:28N 37°55' W 122°22'0 0.0
2017-May-23 21:00N 37°55' W 122°22'0 0.0
2017-May-23 20:27N 37°55' W 122°22'0 0.0
2017-May-23 20:00N 37°55' W 122°22'0 0.0
2017-May-23 19:30N 37°55' W 122°22'0 0.0
2017-May-23 19:00N 37°55' W 122°22'0 0.0
2017-May-23 18:30N 37°55' W 122°22'0 0.0
2017-May-23 18:00N 37°55' W 122°22'0 0.0
2017-May-23 17:30N 37°55' W 122°22'0 0.0
2017-May-23 17:00N 37°55' W 122°22'0 0.0
2017-May-23 16:27N 37°55' W 122°22'0 0.0
2017-May-23 16:00N 37°55' W 122°22'0 0.0
2017-May-23 15:27N 37°55' W 122°22'0 0.0
2017-May-23 14:57N 37°55' W 122°22'0 0.0
2017-May-23 14:00N 37°55' W 122°22'0 0.0
2017-May-23 13:30N 37°55' W 122°22'0 0.0
2017-May-23 13:00N 37°55' W 122°22'0 0.0
2017-May-23 12:30N 37°55' W 122°22'0 0.0
2017-May-23 12:00N 37°55' W 122°22'0 0.0
2017-May-23 11:30N 37°55' W 122°22'0 0.0
2017-May-23 11:00N 37°55' W 122°22'0 0.0
2017-May-23 10:27N 37°55' W 122°22'0 0.0
2017-May-23 10:00N 37°55' W 122°22'0 0.0
2017-May-23 09:27N 37°55' W 122°22'0 0.0
2017-May-23 08:57N 37°55' W 122°22'0 0.0
2017-May-23 08:27N 37°55' W 122°22'0 0.0
2017-May-23 07:57N 37°55' W 122°22'0 0.0
2017-May-23 07:30N 37°55' W 122°22'0 0.0
2017-May-23 07:00N 37°55' W 122°22'0 0.0
2017-May-23 06:27N 37°55' W 122°22'0 0.0
2017-May-23 06:00N 37°55' W 122°22'0 0.0
2017-May-23 05:30N 37°55' W 122°22'0 0.0
2017-May-23 05:00N 37°55' W 122°22'0 0.0
2017-May-23 04:27N 37°55' W 122°22'0 0.0
2017-May-23 04:00N 37°55' W 122°22'0 0.0
2017-May-23 03:30N 37°55' W 122°22'0 0.0
2017-May-23 03:00N 37°55' W 122°22'0 0.0
2017-May-23 02:30N 37°55' W 122°22'0 0.0
2017-May-23 02:00N 37°55' W 122°22'0 0.0
2017-May-23 01:30N 37°55' W 122°22'0 0.0
2017-May-23 01:00N 37°55' W 122°22'0 0.0
2017-May-23 00:30N 37°55' W 122°22'0 0.0
2017-May-23 00:00N 37°55' W 122°22'0 0.0
2017-May-22 23:27N 37°55' W 122°22'0 0.0
2017-May-22 23:00N 37°55' W 122°22'0 0.0
2017-May-22 22:30N 37°55' W 122°22'0 0.0
2017-May-22 21:57N 37°55' W 122°22'0 0.0
2017-May-22 21:30N 37°55' W 122°22'0 0.0
2017-May-22 20:57N 37°55' W 122°22'0 0.0
2017-May-22 20:27N 37°55' W 122°22'0 0.0
2017-May-22 20:00N 37°55' W 122°22'0 0.0
2017-May-22 19:27N 37°55' W 122°22'0 0.0
2017-May-22 19:00N 37°55' W 122°22'0 0.0
2017-May-22 18:30N 37°55' W 122°22'0 0.0
2017-May-22 17:57N 37°55' W 122°22'0 0.0
2017-May-22 17:27N 37°55' W 122°22'0 0.0
2017-May-22 17:00N 37°55' W 122°22'0 0.0
2017-May-22 16:30N 37°55' W 122°22'0 0.0
2017-May-22 16:00N 37°55' W 122°22'0 0.0
2017-May-22 15:27N 37°55' W 122°22'0 0.0
2017-May-22 14:57N 37°55' W 122°22'0 0.0
2017-May-22 13:57N 37°55' W 122°22'0 0.0
2017-May-22 13:27N 37°55' W 122°22'0 0.0
2017-May-22 12:57N 37°55' W 122°22'0 0.0
2017-May-22 12:30N 37°55' W 122°22'0 0.0
2017-May-22 11:57N 37°55' W 122°22'0 0.0
2017-May-22 11:27N 37°55' W 122°22'0 0.0
2017-May-22 10:57N 37°55' W 122°22'0 0.0
2017-May-22 10:27N 37°55' W 122°22'0 0.0
2017-May-22 09:57N 37°55' W 122°22'0 0.0
2017-May-22 09:30N 37°55' W 122°22'0 0.0
2017-May-22 08:57N 37°55' W 122°22'0 0.0
2017-May-22 08:30N 37°55' W 122°22'0 0.0
2017-May-22 07:57N 37°55' W 122°22'0 0.0
2017-May-22 07:27N 37°55' W 122°22'0 0.0
2017-May-22 07:00N 37°55' W 122°22'0 0.0
2017-May-22 06:27N 37°55' W 122°22'0 0.0
2017-May-22 05:57N 37°55' W 122°22'0 0.0
2017-May-22 05:27N 37°55' W 122°22'0 0.0
2017-May-22 04:57N 37°55' W 122°22'0 0.0
2017-May-22 04:30N 37°55' W 122°22'0 0.0
2017-May-22 04:00N 37°55' W 122°22'0 0.0
2017-May-22 03:30N 37°55' W 122°22'0 0.0
2017-May-22 03:00N 37°55' W 122°22'0 0.0
2017-May-22 02:30N 37°55' W 122°22'0 0.0
2017-May-22 01:57N 37°55' W 122°22'0 0.0
2017-May-22 01:30N 37°55' W 122°22'0 0.0
2017-May-22 01:00N 37°55' W 122°22'0 0.0
2017-May-22 00:27N 37°55' W 122°22'0 0.0
2017-May-21 23:57N 37°55' W 122°22'0 0.0
2017-May-21 23:21N 37°55' W 122°22'0 0.0
2017-May-21 23:00N 37°55' W 122°22'0 0.0
2017-May-21 22:30N 37°55' W 122°22'0 0.0
2017-May-21 21:54N 37°55' W 122°22'0 0.0
2017-May-21 21:30N 37°55' W 122°22'0 0.0
2017-May-21 21:00N 37°55' W 122°22'0 0.0
2017-May-21 20:30N 37°55' W 122°22'0 0.0
2017-May-21 20:00N 37°55' W 122°22'0 0.0
2017-May-21 19:15N 37°55' W 122°22'0 0.0
2017-May-21 18:57N 37°55' W 122°22'0 0.0
2017-May-21 18:27N 37°55' W 122°22'0 0.0
2017-May-21 17:57N 37°55' W 122°22'0 0.0
2017-May-21 17:30N 37°55' W 122°22'0 0.0
2017-May-21 17:00N 37°55' W 122°22'0 0.0
2017-May-21 16:30N 37°55' W 122°22'0 0.0
2017-May-21 16:00N 37°55' W 122°22'0 0.0
2017-May-21 15:27N 37°55' W 122°22'0 0.0
2017-May-21 14:57N 37°55' W 122°22'0 0.0
2017-May-21 14:00N 37°55' W 122°22'0 0.0
2017-May-21 13:30N 37°55' W 122°22'0 0.0
2017-May-21 13:00N 37°55' W 122°22'0 0.0
2017-May-21 12:30N 37°55' W 122°22'0 0.0
2017-May-21 12:00N 37°55' W 122°22'0 0.0
2017-May-21 11:30N 37°55' W 122°22'0 0.0
2017-May-21 11:00N 37°55' W 122°22'0 0.0
2017-May-21 10:27N 37°55' W 122°22'0 0.0
2017-May-21 10:00N 37°55' W 122°22'0 0.0
2017-May-21 09:27N 37°55' W 122°22'0 0.0
2017-May-21 08:57N 37°55' W 122°22'0 0.0
2017-May-21 08:30N 37°55' W 122°22'0 0.0
2017-May-21 07:48N 37°55' W 122°22'0 0.0
2017-May-21 07:30N 37°55' W 122°22'0 0.0
2017-May-21 06:54N 37°55' W 122°22'0 0.0
2017-May-21 06:30N 37°55' W 122°22'0 0.0
2017-May-21 06:00N 37°55' W 122°22'0 0.0
2017-May-21 05:30N 37°55' W 122°22'0 0.0
2017-May-21 05:00N 37°55' W 122°22'0 0.0
2017-May-21 04:27N 37°55' W 122°22'0 0.0
2017-May-21 04:00N 37°55' W 122°22'0 0.0
2017-May-21 03:15N 37°55' W 122°22'0 0.0
2017-May-21 03:00N 37°55' W 122°22'0 0.0
2017-May-21 02:30N 37°55' W 122°22'0 0.0
2017-May-21 02:00N 37°55' W 122°22'0 0.0
2017-May-21 01:27N 37°55' W 122°22'0 0.0
2017-May-21 01:00N 37°55' W 122°22'0 0.0
2017-May-21 00:30N 37°55' W 122°22'0 0.0
2017-May-21 00:00N 37°55' W 122°22'0 0.0
2017-May-20 23:30N 37°55' W 122°22'0 0.0
2017-May-20 23:00N 37°55' W 122°22'0 0.0
2017-May-20 22:30N 37°55' W 122°22'0 0.0
2017-May-20 22:00N 37°55' W 122°22'0 0.0
2017-May-20 21:30N 37°55' W 122°22'0 0.0
2017-May-20 21:00N 37°55' W 122°22'0 0.0
2017-May-20 20:30N 37°55' W 122°22'0 0.0
2017-May-20 20:00N 37°55' W 122°22'0 0.0
2017-May-20 19:30N 37°55' W 122°22'0 0.0
2017-May-20 19:00N 37°55' W 122°22'0 0.0
2017-May-20 18:30N 37°55' W 122°22'0 0.0
2017-May-20 18:00N 37°55' W 122°22'0 0.0
2017-May-20 17:30N 37°55' W 122°22'0 0.0
2017-May-20 17:00N 37°55' W 122°22'0 0.0
2017-May-20 16:30N 37°55' W 122°22'0 0.0
2017-May-20 16:00N 37°55' W 122°22'0 0.0
2017-May-20 15:30N 37°55' W 122°22'0 0.0
2017-May-20 15:00N 37°55' W 122°22'0 0.0
2017-May-20 14:00N 37°55' W 122°22'0 0.6
2017-May-20 13:30N 37°55' W 122°22'1 1.3
2017-May-20 13:00N 37°54' W 122°22'2 4.2
2017-May-20 12:30N 37°55' W 122°24'2 4.1
2017-May-20 12:00N 37°53' W 122°25'5 9.9
2017-May-20 11:30N 37°48' W 122°22'3 6.3
2017-May-20 11:00N 37°45' W 122°21'0 0.3
2017-May-20 10:30N 37°45' W 122°21'0 0.3
2017-May-20 10:00N 37°46' W 122°21'0 0.1
2017-May-20 09:30N 37°46' W 122°21'0 0.0
2017-May-20 09:00N 37°46' W 122°21'0 0.2
2017-May-20 08:30N 37°46' W 122°21'0 0.0
2017-May-20 08:00N 37°46' W 122°21'0 0.0
2017-May-20 07:30N 37°46' W 122°21'0 0.0
2017-May-20 07:00N 37°46' W 122°21'0 0.0
2017-May-20 06:30N 37°46' W 122°21'0 0.0
2017-May-20 06:00N 37°46' W 122°21'0 0.2
2017-May-20 05:30N 37°46' W 122°21'0 0.3
2017-May-20 05:00N 37°45' W 122°21'0 0.2
2017-May-20 04:30N 37°45' W 122°21'0 0.1
2017-May-20 04:00N 37°45' W 122°21'0 0.1
2017-May-20 03:30N 37°45' W 122°21'0 0.1
2017-May-20 03:00N 37°45' W 122°21'0 0.0
2017-May-20 02:30N 37°45' W 122°21'0 0.0
2017-May-20 02:00N 37°45' W 122°21'0 0.0
2017-May-20 01:30N 37°45' W 122°21'0 0.0
2017-May-20 01:00N 37°45' W 122°21'0 0.0
2017-May-20 00:27N 37°45' W 122°21'0 0.0
2017-May-20 00:00N 37°45' W 122°21'0 0.0
2017-May-19 23:30N 37°45' W 122°21'0 0.0
2017-May-19 23:00N 37°45' W 122°21'0 0.2
2017-May-19 22:31N 37°45' W 122°21'3 5.2
2017-May-19 22:00N 37°48' W 122°22'713.0
2017-May-19 21:31N 37°54' W 122°26'612.6
2017-May-19 21:01N 37°60' W 122°25'612.6
2017-May-19 20:30N 38°03' W 122°18'812.7
2017-May-19 19:54N 38°02' W 122°09'4 9.4
2017-May-19 19:29N 38°04' W 122°04'511.5
2017-May-19 19:00N 38°03' W 121°57'5 9.2
2017-May-19 18:30N 38°02' W 121°52'4 8.4
2017-May-19 18:00N 38°02' W 121°46'  
2017-May-16 15:07N 38°01' W 121°49'1 9.2
2017-May-16 14:57N 38°02' W 121°51'6 7.7
2017-May-16 14:12N 38°04' W 121°58'10 8.5
2017-May-16 13:03N 38°03' W 122°11'011.2
2017-May-16 13:00N 38°03' W 122°11'611.8
2017-May-16 12:30N 38°03' W 122°18'611.6
2017-May-16 12:00N 38°00' W 122°25'611.9
2017-May-16 11:30N 37°55' W 122°27'612.6
2017-May-16 11:00N 37°49' W 122°23'611.3
2017-May-16 10:30N 37°44' W 122°21'1 1.6
2017-May-16 09:59N 37°43' W 122°20'0 0.0
2017-May-16 09:29N 37°43' W 122°20'0 0.0
2017-May-16 08:59N 37°43' W 122°20'0 0.0
2017-May-16 08:29N 37°43' W 122°20'0 0.1
2017-May-16 07:59N 37°43' W 122°20'0 0.0
2017-May-16 07:29N 37°43' W 122°20'0 0.1
2017-May-16 06:59N 37°43' W 122°20'0 0.1
2017-May-16 06:29N 37°43' W 122°20'0 0.1
2017-May-16 05:59N 37°43' W 122°20'0 0.0
2017-May-16 05:29N 37°43' W 122°20'0 0.0
2017-May-16 04:59N 37°43' W 122°20'0 0.0
2017-May-16 04:29N 37°43' W 122°20'0 0.1
2017-May-16 03:59N 37°43' W 122°20'0 0.0
2017-May-16 03:29N 37°43' W 122°20'0 0.1
2017-May-16 02:59N 37°43' W 122°20'0 0.0
2017-May-16 02:29N 37°43' W 122°20'0 0.1
2017-May-16 01:59N 37°43' W 122°20'0 0.0
2017-May-16 01:29N 37°43' W 122°20'0 0.1
2017-May-16 00:59N 37°43' W 122°20'0 0.1
2017-May-16 00:29N 37°43' W 122°20'0 0.0
2017-May-15 23:59N 37°43' W 122°20'0 0.1
2017-May-15 23:29N 37°43' W 122°20'0 0.0
2017-May-15 22:59N 37°43' W 122°20'0 0.0
2017-May-15 22:29N 37°43' W 122°20'0 0.0
2017-May-15 21:59N 37°43' W 122°20'0 0.0
2017-May-15 21:29N 37°43' W 122°20'0 0.0
2017-May-15 20:59N 37°43' W 122°20'0 0.0
2017-May-15 20:29N 37°43' W 122°20'0 0.0
2017-May-15 19:59N 37°43' W 122°20'0 0.1
2017-May-15 19:29N 37°43' W 122°20'0 0.2
2017-May-15 18:59N 37°43' W 122°20'0 0.4
2017-May-15 18:29N 37°43' W 122°20'0 0.1
2017-May-15 17:59N 37°43' W 122°20'0 0.0
2017-May-15 17:29N 37°43' W 122°20'0 0.1
2017-May-15 16:59N 37°43' W 122°20'0 0.0
2017-May-15 16:29N 37°43' W 122°20'0 0.1
2017-May-15 15:59N 37°43' W 122°20'0 0.0
2017-May-15 15:29N 37°43' W 122°20'0 0.0
2017-May-15 14:59N 37°43' W 122°20'0 0.0
2017-May-15 13:59N 37°43' W 122°21'0 0.1
2017-May-15 13:29N 37°43' W 122°20'0 0.0
2017-May-15 12:59N 37°43' W 122°20'0 0.0
2017-May-15 12:29N 37°43' W 122°20'0 0.0
2017-May-15 11:59N 37°43' W 122°20'0 0.0
2017-May-15 11:29N 37°43' W 122°20'0 0.1
2017-May-15 10:59N 37°43' W 122°20'0 0.3
2017-May-15 10:29N 37°43' W 122°20'0 0.2
2017-May-15 09:59N 37°43' W 122°20'0 0.1
2017-May-15 09:29N 37°43' W 122°20'0 0.0
2017-May-15 08:59N 37°43' W 122°20'0 0.0
2017-May-15 08:29N 37°43' W 122°20'0 0.0
2017-May-15 07:59N 37°43' W 122°20'0 0.0
2017-May-15 07:29N 37°43' W 122°20'0 0.0
2017-May-15 06:59N 37°43' W 122°20'0 0.0
2017-May-15 06:29N 37°43' W 122°20'0 0.0
2017-May-15 05:59N 37°43' W 122°20'0 0.1
2017-May-15 05:29N 37°43' W 122°20'0 0.0
2017-May-15 04:59N 37°43' W 122°20'0 0.1
2017-May-15 04:26N 37°43' W 122°20'0 0.3
2017-May-15 03:59N 37°43' W 122°20'0 0.1
2017-May-15 03:29N 37°43' W 122°20'0 0.0
2017-May-15 02:59N 37°43' W 122°20'0 0.0
2017-May-15 02:29N 37°43' W 122°20'0 0.0
2017-May-15 01:59N 37°43' W 122°20'0 0.0
2017-May-15 01:29N 37°43' W 122°20'0 0.1
2017-May-15 00:59N 37°43' W 122°20'0 0.0
2017-May-15 00:29N 37°43' W 122°20'0 0.2
2017-May-14 23:59N 37°43' W 122°20'0 0.1
2017-May-14 23:29N 37°43' W 122°20'0 0.0
2017-May-14 22:59N 37°43' W 122°20'0 0.1
2017-May-14 22:29N 37°43' W 122°20'0 0.0
2017-May-14 21:59N 37°43' W 122°20'0 0.0
2017-May-14 21:29N 37°43' W 122°20'0 0.0
2017-May-14 20:59N 37°43' W 122°20'0 0.0
2017-May-14 20:29N 37°43' W 122°20'0 0.0
2017-May-14 19:59N 37°43' W 122°20'0 0.0
2017-May-14 19:29N 37°43' W 122°20'0 0.0
2017-May-14 18:59N 37°43' W 122°20'0 0.1
2017-May-14 18:29N 37°43' W 122°20'0 0.1
2017-May-14 17:59N 37°43' W 122°20'  
Track history (hours):
 
Tides and Currents Weather Stations Pressure Air Temp Water Temp Dewpoint Dewpoint Depression Visibility Wind Speed Wind Dir Waves Ship Positions

Unity N

Last reported at 2017-May-24 17:43 UTC. Time now 2017-Jul-24 00:40 UTC.
Position N 37°34' W 124°51'.
Warning: this ship's position is months out of date.

Length 229 m; draft 11.9 m.

Type: Cargo ship. MMSI: 538006451.

Date/timePositionNaut miles runAvg speedWind from/ knotsBaromVisibWave heightAir tempDewpointWater temp
2017-May-24 17:43N 37°34' W 124°51'10 9.8
2017-May-24 16:41N 37°34' W 124°38'210.3
2017-May-24 16:30N 37°34' W 124°35'510.2
2017-May-24 16:01N 37°34' W 124°29'610.2
2017-May-24 15:25N 37°34' W 124°21'410.0
2017-May-24 15:01N 37°34' W 124°16'5 9.5
2017-May-24 14:30N 37°34' W 124°10'1010.0
2017-May-24 13:31N 37°34' W 123°58'510.3
2017-May-24 13:01N 37°34' W 123°51'510.6
2017-May-24 12:31N 37°34' W 123°45'510.9
2017-May-24 12:01N 37°34' W 123°38'611.1
2017-May-24 11:30N 37°34' W 123°31'610.9
2017-May-24 11:00N 37°34' W 123°24'510.5
2017-May-24 10:30N 37°34' W 123°17'510.4
2017-May-24 10:01N 37°34' W 123°11'510.2
2017-May-24 09:30N 37°34' W 123°04'510.8
2017-May-24 09:00N 37°37' W 122°58'511.0
2017-May-24 08:30N 37°40' W 122°53'510.9
2017-May-24 08:01N 37°43' W 122°47'510.5
2017-May-24 07:31N 37°45' W 122°41'510.5
2017-May-24 07:01N 37°47' W 122°35'611.7
2017-May-24 06:30N 37°50' W 122°28'4 7.4
2017-May-24 06:01N 37°52' W 122°25'2 4.7
2017-May-24 05:30N 37°55' W 122°24'2 4.4
2017-May-24 05:00N 37°55' W 122°22'1 1.1
2017-May-24 04:30N 37°55' W 122°22'0 0.0
2017-May-24 03:58N 37°55' W 122°22'0 0.0
2017-May-24 03:28N 37°55' W 122°22'0 0.0
2017-May-24 03:00N 37°55' W 122°22'0 0.0
2017-May-24 02:28N 37°55' W 122°22'0 0.0
2017-May-24 01:57N 37°55' W 122°22'0 0.0
2017-May-24 01:31N 37°55' W 122°22'0 0.0
2017-May-24 00:57N 37°55' W 122°22'0 0.0
2017-May-24 00:27N 37°55' W 122°22'0 0.0
2017-May-24 00:00N 37°55' W 122°22'0 0.0
2017-May-23 23:27N 37°55' W 122°22'0 0.0
2017-May-23 23:00N 37°55' W 122°22'0 0.0
2017-May-23 22:27N 37°55' W 122°22'0 0.0
2017-May-23 21:57N 37°55' W 122°22'0 0.0
2017-May-23 21:28N 37°55' W 122°22'0 0.0
2017-May-23 21:00N 37°55' W 122°22'0 0.0
2017-May-23 20:27N 37°55' W 122°22'0 0.0
2017-May-23 20:00N 37°55' W 122°22'0 0.0
2017-May-23 19:30N 37°55' W 122°22'0 0.0
2017-May-23 19:00N 37°55' W 122°22'0 0.0
2017-May-23 18:30N 37°55' W 122°22'0 0.0
2017-May-23 18:00N 37°55' W 122°22'0 0.0
2017-May-23 17:30N 37°55' W 122°22'0 0.0
2017-May-23 17:00N 37°55' W 122°22'0 0.0
2017-May-23 16:27N 37°55' W 122°22'0 0.0
2017-May-23 16:00N 37°55' W 122°22'0 0.0
2017-May-23 15:27N 37°55' W 122°22'0 0.0
2017-May-23 14:57N 37°55' W 122°22'0 0.0
2017-May-23 14:00N 37°55' W 122°22'0 0.0
2017-May-23 13:30N 37°55' W 122°22'0 0.0
2017-May-23 13:00N 37°55' W 122°22'0 0.0
2017-May-23 12:30N 37°55' W 122°22'0 0.0
2017-May-23 12:00N 37°55' W 122°22'0 0.0
2017-May-23 11:30N 37°55' W 122°22'0 0.0
2017-May-23 11:00N 37°55' W 122°22'0 0.0
2017-May-23 10:27N 37°55' W 122°22'0 0.0
2017-May-23 10:00N 37°55' W 122°22'0 0.0
2017-May-23 09:27N 37°55' W 122°22'0 0.0
2017-May-23 08:57N 37°55' W 122°22'0 0.0
2017-May-23 08:27N 37°55' W 122°22'0 0.0
2017-May-23 07:57N 37°55' W 122°22'0 0.0
2017-May-23 07:30N 37°55' W 122°22'0 0.0
2017-May-23 07:00N 37°55' W 122°22'0 0.0
2017-May-23 06:27N 37°55' W 122°22'0 0.0
2017-May-23 06:00N 37°55' W 122°22'0 0.0
2017-May-23 05:30N 37°55' W 122°22'0 0.0
2017-May-23 05:00N 37°55' W 122°22'0 0.0
2017-May-23 04:27N 37°55' W 122°22'0 0.0
2017-May-23 04:00N 37°55' W 122°22'0 0.0
2017-May-23 03:30N 37°55' W 122°22'0 0.0
2017-May-23 03:00N 37°55' W 122°22'0 0.0
2017-May-23 02:30N 37°55' W 122°22'0 0.0
2017-May-23 02:00N 37°55' W 122°22'0 0.0
2017-May-23 01:30N 37°55' W 122°22'0 0.0
2017-May-23 01:00N 37°55' W 122°22'0 0.0
2017-May-23 00:30N 37°55' W 122°22'0 0.0
2017-May-23 00:00N 37°55' W 122°22'0 0.0
2017-May-22 23:27N 37°55' W 122°22'0 0.0
2017-May-22 23:00N 37°55' W 122°22'0 0.0
2017-May-22 22:30N 37°55' W 122°22'0 0.0
2017-May-22 21:57N 37°55' W 122°22'0 0.0
2017-May-22 21:30N 37°55' W 122°22'0 0.0
2017-May-22 20:57N 37°55' W 122°22'0 0.0
2017-May-22 20:27N 37°55' W 122°22'0 0.0
2017-May-22 20:00N 37°55' W 122°22'0 0.0
2017-May-22 19:27N 37°55' W 122°22'0 0.0
2017-May-22 19:00N 37°55' W 122°22'0 0.0
2017-May-22 18:30N 37°55' W 122°22'0 0.0
2017-May-22 17:57N 37°55' W 122°22'0 0.0
2017-May-22 17:27N 37°55' W 122°22'0 0.0
2017-May-22 17:00N 37°55' W 122°22'0 0.0
2017-May-22 16:30N 37°55' W 122°22'0 0.0
2017-May-22 16:00N 37°55' W 122°22'0 0.0
2017-May-22 15:27N 37°55' W 122°22'0 0.0
2017-May-22 14:57N 37°55' W 122°22'0 0.0
2017-May-22 13:57N 37°55' W 122°22'0 0.0
2017-May-22 13:27N 37°55' W 122°22'0 0.0
2017-May-22 12:57N 37°55' W 122°22'0 0.0
2017-May-22 12:30N 37°55' W 122°22'0 0.0
2017-May-22 11:57N 37°55' W 122°22'0 0.0
2017-May-22 11:27N 37°55' W 122°22'0 0.0
2017-May-22 10:57N 37°55' W 122°22'0 0.0
2017-May-22 10:27N 37°55' W 122°22'0 0.0
2017-May-22 09:57N 37°55' W 122°22'0 0.0
2017-May-22 09:30N 37°55' W 122°22'0 0.0
2017-May-22 08:57N 37°55' W 122°22'0 0.0
2017-May-22 08:30N 37°55' W 122°22'0 0.0
2017-May-22 07:57N 37°55' W 122°22'0 0.0
2017-May-22 07:27N 37°55' W 122°22'0 0.0
2017-May-22 07:00N 37°55' W 122°22'0 0.0
2017-May-22 06:27N 37°55' W 122°22'0 0.0
2017-May-22 05:57N 37°55' W 122°22'0 0.0
2017-May-22 05:27N 37°55' W 122°22'0 0.0
2017-May-22 04:57N 37°55' W 122°22'0 0.0
2017-May-22 04:30N 37°55' W 122°22'0 0.0
2017-May-22 04:00N 37°55' W 122°22'0 0.0
2017-May-22 03:30N 37°55' W 122°22'0 0.0
2017-May-22 03:00N 37°55' W 122°22'0 0.0
2017-May-22 02:30N 37°55' W 122°22'0 0.0
2017-May-22 01:57N 37°55' W 122°22'0 0.0
2017-May-22 01:30N 37°55' W 122°22'0 0.0
2017-May-22 01:00N 37°55' W 122°22'0 0.0
2017-May-22 00:27N 37°55' W 122°22'0 0.0
2017-May-21 23:57N 37°55' W 122°22'0 0.0
2017-May-21 23:21N 37°55' W 122°22'0 0.0
2017-May-21 23:00N 37°55' W 122°22'0 0.0
2017-May-21 22:30N 37°55' W 122°22'0 0.0
2017-May-21 21:54N 37°55' W 122°22'0 0.0
2017-May-21 21:30N 37°55' W 122°22'0 0.0
2017-May-21 21:00N 37°55' W 122°22'0 0.0
2017-May-21 20:30N 37°55' W 122°22'0 0.0
2017-May-21 20:00N 37°55' W 122°22'0 0.0
2017-May-21 19:15N 37°55' W 122°22'0 0.0
2017-May-21 18:57N 37°55' W 122°22'0 0.0
2017-May-21 18:27N 37°55' W 122°22'0 0.0
2017-May-21 17:57N 37°55' W 122°22'0 0.0
2017-May-21 17:30N 37°55' W 122°22'0 0.0
2017-May-21 17:00N 37°55' W 122°22'0 0.0
2017-May-21 16:30N 37°55' W 122°22'0 0.0
2017-May-21 16:00N 37°55' W 122°22'0 0.0
2017-May-21 15:27N 37°55' W 122°22'0 0.0
2017-May-21 14:57N 37°55' W 122°22'0 0.0
2017-May-21 14:00N 37°55' W 122°22'0 0.0
2017-May-21 13:30N 37°55' W 122°22'0 0.0
2017-May-21 13:00N 37°55' W 122°22'0 0.0
2017-May-21 12:30N 37°55' W 122°22'0 0.0
2017-May-21 12:00N 37°55' W 122°22'0 0.0
2017-May-21 11:30N 37°55' W 122°22'0 0.0
2017-May-21 11:00N 37°55' W 122°22'0 0.0
2017-May-21 10:27N 37°55' W 122°22'0 0.0
2017-May-21 10:00N 37°55' W 122°22'0 0.0
2017-May-21 09:27N 37°55' W 122°22'0 0.0
2017-May-21 08:57N 37°55' W 122°22'0 0.0
2017-May-21 08:30N 37°55' W 122°22'0 0.0
2017-May-21 07:48N 37°55' W 122°22'0 0.0
2017-May-21 07:30N 37°55' W 122°22'0 0.0
2017-May-21 06:54N 37°55' W 122°22'0 0.0
2017-May-21 06:30N 37°55' W 122°22'0 0.0
2017-May-21 06:00N 37°55' W 122°22'0 0.0
2017-May-21 05:30N 37°55' W 122°22'0 0.0
2017-May-21 05:00N 37°55' W 122°22'0 0.0
2017-May-21 04:27N 37°55' W 122°22'0 0.0
2017-May-21 04:00N 37°55' W 122°22'0 0.0
2017-May-21 03:15N 37°55' W 122°22'0 0.0
2017-May-21 03:00N 37°55' W 122°22'0 0.0
2017-May-21 02:30N 37°55' W 122°22'0 0.0
2017-May-21 02:00N 37°55' W 122°22'0 0.0
2017-May-21 01:27N 37°55' W 122°22'0 0.0
2017-May-21 01:00N 37°55' W 122°22'0 0.0
2017-May-21 00:30N 37°55' W 122°22'0 0.0
2017-May-21 00:00N 37°55' W 122°22'0 0.0
2017-May-20 23:30N 37°55' W 122°22'0 0.0
2017-May-20 23:00N 37°55' W 122°22'0 0.0
2017-May-20 22:30N 37°55' W 122°22'0 0.0
2017-May-20 22:00N 37°55' W 122°22'0 0.0
2017-May-20 21:30N 37°55' W 122°22'0 0.0
2017-May-20 21:00N 37°55' W 122°22'0 0.0
2017-May-20 20:30N 37°55' W 122°22'0 0.0
2017-May-20 20:00N 37°55' W 122°22'0 0.0
2017-May-20 19:30N 37°55' W 122°22'0 0.0
2017-May-20 19:00N 37°55' W 122°22'0 0.0
2017-May-20 18:30N 37°55' W 122°22'0 0.0
2017-May-20 18:00N 37°55' W 122°22'0 0.0
2017-May-20 17:30N 37°55' W 122°22'0 0.0
2017-May-20 17:00N 37°55' W 122°22'0 0.0
2017-May-20 16:30N 37°55' W 122°22'0 0.0
2017-May-20 16:00N 37°55' W 122°22'0 0.0
2017-May-20 15:30N 37°55' W 122°22'0 0.0
2017-May-20 15:00N 37°55' W 122°22'0 0.0
2017-May-20 14:00N 37°55' W 122°22'0 0.6
2017-May-20 13:30N 37°55' W 122°22'1 1.3
2017-May-20 13:00N 37°54' W 122°22'2 4.2
2017-May-20 12:30N 37°55' W 122°24'2 4.1
2017-May-20 12:00N 37°53' W 122°25'5 9.9
2017-May-20 11:30N 37°48' W 122°22'3 6.3
2017-May-20 11:00N 37°45' W 122°21'0 0.3
2017-May-20 10:30N 37°45' W 122°21'0 0.3
2017-May-20 10:00N 37°46' W 122°21'0 0.1
2017-May-20 09:30N 37°46' W 122°21'0 0.0
2017-May-20 09:00N 37°46' W 122°21'0 0.2
2017-May-20 08:30N 37°46' W 122°21'0 0.0
2017-May-20 08:00N 37°46' W 122°21'0 0.0
2017-May-20 07:30N 37°46' W 122°21'0 0.0
2017-May-20 07:00N 37°46' W 122°21'0 0.0
2017-May-20 06:30N 37°46' W 122°21'0 0.0
2017-May-20 06:00N 37°46' W 122°21'0 0.2
2017-May-20 05:30N 37°46' W 122°21'0 0.3
2017-May-20 05:00N 37°45' W 122°21'0 0.2
2017-May-20 04:30N 37°45' W 122°21'0 0.1
2017-May-20 04:00N 37°45' W 122°21'0 0.1
2017-May-20 03:30N 37°45' W 122°21'0 0.1
2017-May-20 03:00N 37°45' W 122°21'0 0.0
2017-May-20 02:30N 37°45' W 122°21'0 0.0
2017-May-20 02:00N 37°45' W 122°21'0 0.0
2017-May-20 01:30N 37°45' W 122°21'0 0.0
2017-May-20 01:00N 37°45' W 122°21'0 0.0
2017-May-20 00:27N 37°45' W 122°21'0 0.0
2017-May-20 00:00N 37°45' W 122°21'0 0.0
2017-May-19 23:30N 37°45' W 122°21'0 0.0
2017-May-19 23:00N 37°45' W 122°21'0 0.2
2017-May-19 22:31N 37°45' W 122°21'3 5.2
2017-May-19 22:00N 37°48' W 122°22'713.0
2017-May-19 21:31N 37°54' W 122°26'612.6
2017-May-19 21:01N 37°60' W 122°25'612.6
2017-May-19 20:30N 38°03' W 122°18'812.7
2017-May-19 19:54N 38°02' W 122°09'4 9.4
2017-May-19 19:29N 38°04' W 122°04'511.5
2017-May-19 19:00N 38°03' W 121°57'5 9.2
2017-May-19 18:30N 38°02' W 121°52'4 8.4
2017-May-19 18:00N 38°02' W 121°46'  
2017-May-16 15:07N 38°01' W 121°49'1 9.2
2017-May-16 14:57N 38°02' W 121°51'6 7.7
2017-May-16 14:12N 38°04' W 121°58'10 8.5
2017-May-16 13:03N 38°03' W 122°11'011.2
2017-May-16 13:00N 38°03' W 122°11'611.8
2017-May-16 12:30N 38°03' W 122°18'611.6
2017-May-16 12:00N 38°00' W 122°25'611.9
2017-May-16 11:30N 37°55' W 122°27'612.6
2017-May-16 11:00N 37°49' W 122°23'611.3
2017-May-16 10:30N 37°44' W 122°21'1 1.6
2017-May-16 09:59N 37°43' W 122°20'0 0.0
2017-May-16 09:29N 37°43' W 122°20'0 0.0
2017-May-16 08:59N 37°43' W 122°20'0 0.0
2017-May-16 08:29N 37°43' W 122°20'0 0.1
2017-May-16 07:59N 37°43' W 122°20'0 0.0
2017-May-16 07:29N 37°43' W 122°20'0 0.1
2017-May-16 06:59N 37°43' W 122°20'0 0.1
2017-May-16 06:29N 37°43' W 122°20'0 0.1
2017-May-16 05:59N 37°43' W 122°20'0 0.0
2017-May-16 05:29N 37°43' W 122°20'0 0.0
2017-May-16 04:59N 37°43' W 122°20'0 0.0
2017-May-16 04:29N 37°43' W 122°20'0 0.1
2017-May-16 03:59N 37°43' W 122°20'0 0.0
2017-May-16 03:29N 37°43' W 122°20'0 0.1
2017-May-16 02:59N 37°43' W 122°20'0 0.0
2017-May-16 02:29N 37°43' W 122°20'0 0.1
2017-May-16 01:59N 37°43' W 122°20'0 0.0
2017-May-16 01:29N 37°43' W 122°20'0 0.1
2017-May-16 00:59N 37°43' W 122°20'0 0.1
2017-May-16 00:29N 37°43' W 122°20'0 0.0
2017-May-15 23:59N 37°43' W 122°20'0 0.1
2017-May-15 23:29N 37°43' W 122°20'0 0.0
2017-May-15 22:59N 37°43' W 122°20'0 0.0
2017-May-15 22:29N 37°43' W 122°20'0 0.0
2017-May-15 21:59N 37°43' W 122°20'0 0.0
2017-May-15 21:29N 37°43' W 122°20'0 0.0
2017-May-15 20:59N 37°43' W 122°20'0 0.0
2017-May-15 20:29N 37°43' W 122°20'0 0.0
2017-May-15 19:59N 37°43' W 122°20'0 0.1
2017-May-15 19:29N 37°43' W 122°20'0 0.2
2017-May-15 18:59N 37°43' W 122°20'0 0.4
2017-May-15 18:29N 37°43' W 122°20'0 0.1
2017-May-15 17:59N 37°43' W 122°20'0 0.0
2017-May-15 17:29N 37°43' W 122°20'0 0.1
2017-May-15 16:59N 37°43' W 122°20'0 0.0
2017-May-15 16:29N 37°43' W 122°20'0 0.1
2017-May-15 15:59N 37°43' W 122°20'0 0.0
2017-May-15 15:29N 37°43' W 122°20'0 0.0
2017-May-15 14:59N 37°43' W 122°20'0 0.0
2017-May-15 13:59N 37°43' W 122°21'0 0.1
2017-May-15 13:29N 37°43' W 122°20'0 0.0
2017-May-15 12:59N 37°43' W 122°20'0 0.0
2017-May-15 12:29N 37°43' W 122°20'0 0.0
2017-May-15 11:59N 37°43' W 122°20'0 0.0
2017-May-15 11:29N 37°43' W 122°20'0 0.1
2017-May-15 10:59N 37°43' W 122°20'0 0.3
2017-May-15 10:29N 37°43' W 122°20'0 0.2
2017-May-15 09:59N 37°43' W 122°20'0 0.1
2017-May-15 09:29N 37°43' W 122°20'0 0.0
2017-May-15 08:59N 37°43' W 122°20'0 0.0
2017-May-15 08:29N 37°43' W 122°20'0 0.0
2017-May-15 07:59N 37°43' W 122°20'0 0.0
2017-May-15 07:29N 37°43' W 122°20'0 0.0
2017-May-15 06:59N 37°43' W 122°20'0 0.0
2017-May-15 06:29N 37°43' W 122°20'0 0.0
2017-May-15 05:59N 37°43' W 122°20'0 0.1
2017-May-15 05:29N 37°43' W 122°20'0 0.0
2017-May-15 04:59N 37°43' W 122°20'0 0.1
2017-May-15 04:26N 37°43' W 122°20'0 0.3
2017-May-15 03:59N 37°43' W 122°20'0 0.1
2017-May-15 03:29N 37°43' W 122°20'0 0.0
2017-May-15 02:59N 37°43' W 122°20'0 0.0
2017-May-15 02:29N 37°43' W 122°20'0 0.0
2017-May-15 01:59N 37°43' W 122°20'0 0.0
2017-May-15 01:29N 37°43' W 122°20'0 0.1
2017-May-15 00:59N 37°43' W 122°20'0 0.0
2017-May-15 00:29N 37°43' W 122°20'0 0.2
2017-May-14 23:59N 37°43' W 122°20'0 0.1
2017-May-14 23:29N 37°43' W 122°20'0 0.0
2017-May-14 22:59N 37°43' W 122°20'0 0.1
2017-May-14 22:29N 37°43' W 122°20'0 0.0
2017-May-14 21:59N 37°43' W 122°20'0 0.0
2017-May-14 21:29N 37°43' W 122°20'0 0.0
2017-May-14 20:59N 37°43' W 122°20'0 0.0
2017-May-14 20:29N 37°43' W 122°20'0 0.0
2017-May-14 19:59N 37°43' W 122°20'0 0.0
2017-May-14 19:29N 37°43' W 122°20'0 0.0
2017-May-14 18:59N 37°43' W 122°20'0 0.1
2017-May-14 18:29N 37°43' W 122°20'0 0.1
2017-May-14 17:59N 37°43' W 122°20'  

Dump ship's entire track history